Terminal Aerodrome Forecast
Issued by NWS

Home | Current Version | Previous Version | Text Only | Print | Product List | Glossary On
Versions: 1 2 3 4 5 6 7 8 9 10 11 12 13
968
FTUS45 KPSR 221732
TAFIPL
TAF
KIPL 221732Z 2218/2318 27012G20KT P6SM BKN250
     FM230200 27018G28KT P6SM SCT220
     FM230800 28013KT P6SM SKC=

USA.gov is the U.S. government's official web portal to all federal, state and local government web resources and services.